Eugene, Oregon
Current Conditions -  °F | °C
As of 4:54 AM on Sunday 21 Dec 2014 (Local Time) from KEUG Reporting Station
Light Rain Light Rain  
Wind Chill: 56°   Ceiling: 1700
Heat Index: 56°   Visibility: 10mi
Dew Point: 54°   Wind: 9mph
Humidity: 93%   Direction: 180°S
Pressure: 29.98"   Gusts: NA
Location:  44.05°N, 123.08°W
Report Text: KEUG 211254Z AUTO 18008KT 10SM -RA BKN017 OVC024 13/12 A2998 RMK AO2 SLP152 P0002 T01330122
Loading
Personal Weather Stations






























Interactive Weather Map New forecast layout! Learn more

10-Day Weather Forecast

Advertisements
Track Severe Weather on mobile